This is the latest recevied weather packets stored in our database for station/object DK8RG-15. If no packets are shown the sender has not sent any weather packets the latest 1 day(s).
| Time | Temp. | Humidity | Pressure | Rain* | Wind** | Luminosity | Snow |
|---|---|---|---|---|---|---|---|
| 1778008217 | 15° C | 78% | 1003.2 hPa | 0 mm | 1.34 m/s, 262° | - | - |
| 1778007617 | 15° C | 76% | 1002.5 hPa | 0 mm | 0.45 m/s, 244° | - | - |
| 1778007025 | 15.56° C | 75% | 1002.6 hPa | 0 mm | 0.45 m/s, 210° | - | - |
| 1778006416 | 16.11° C | 74% | 1002.6 hPa | 0 mm | 0.45 m/s, 237° | - | - |
| 1778005816 | 16.11° C | 73% | 1002.6 hPa | 0 mm | 0.45 m/s, 222° | - | - |
| 1778005217 | 16.11° C | 73% | 1002.6 hPa | 0 mm | 0.45 m/s, 180° | - | - |
| 1778002216 | 17.22° C | 68% | 1002.6 hPa | 0 mm | 0.45 m/s, 159° | - | - |
| 1778001016 | 17.22° C | 67% | 1002.6 hPa | 0 mm | 1.79 m/s, 203° | - | - |
| 1778000416 | 17.22° C | 67% | 1002.6 hPa | 0 mm | 1.79 m/s, 179° | - | - |
| 1777999816 | 17.78° C | 68% | 1003.7 hPa | 0 mm | 0.45 m/s, 169° | - | - |
| 1777998616 | 17.78° C | 66% | 1003.7 hPa | 0 mm | 0.45 m/s, 170° | - | - |
| 1777998016 | 17.78° C | 66% | 1003.7 hPa | 0 mm | 0.45 m/s, 215° | - | - |
| 1777997416 | 17.78° C | 66% | 1003.7 hPa | 0 mm | 0.89 m/s, 259° | - | - |
| 1777996815 | 18.33° C | 66% | 1003.7 hPa | 0 mm | 0.89 m/s, 291° | - | - |
| 1777996216 | 18.89° C | 65% | 1003.8 hPa | 0 mm | 0.89 m/s, 320° | - | - |
| 1777995616 | 18.89° C | 65% | 1003.8 hPa | 0 mm | 0.89 m/s, 297° | - | - |
| 1777995017 | 18.33° C | 67% | 1003.8 hPa | 0 mm | 0.45 m/s, 304° | - | - |
| 1777994416 | 17.78° C | 67% | 1003.7 hPa | 0 mm | 0.45 m/s, 320° | - | - |
| 1777993817 | 18.33° C | 66% | 1003.8 hPa | 0 mm | 0.45 m/s, 353° | - | - |
| 1777993216 | 18.89° C | 65% | 1003.8 hPa | 0 mm | 0.45 m/s, 15° | - | - |
| 1777992616 | 18.89° C | 65% | 1003.8 hPa | 0 mm | 0.45 m/s, 357° | - | - |
| 1777992016 | 18.89° C | 65% | 1004.8 hPa | 0 mm | 0.45 m/s, 4° | - | - |
| 1777991416 | 18.89° C | 64% | 1004.8 hPa | 0 mm | 0.45 m/s, 31° | - | - |
| 1777990816 | 19.44° C | 63% | 1004.9 hPa | 0 mm | 0.45 m/s, 32° | - | - |
| 1777990216 | 20° C | 63% | 1004.9 hPa | 0 mm | 0.45 m/s, 60° | - | - |
* Rain latest hour (hover to see other rain measurements)
** Current wind speed in m/s (hover to see current wind gust speed)